Saint-Philippe-De-Neri, Canada
Current Conditions -  °F | °C
As of 8:53 AM on Sunday 21 Dec 2014 (Local Time) from KFVE Reporting Station
Overcast Overcast  
Wind Chill: 17°   Ceiling: 800
Heat Index: 17°   Visibility: 10mi
Dew Point: 15°   Wind: 3mph
Humidity: 92%   Direction: 140°SE
Pressure: 30.33"   Gusts: NA
Location:  47.45°N, 69.88°W
Report Text: KFVE 211353Z AUTO 14003KT 10SM OVC008 M08/M09 A3033 RMK AO2 SLP288 T10831094
Loading
Personal Weather Stations






























Interactive Weather Map New forecast layout! Learn more

10-Day Weather Forecast

Advertisements
Track Severe Weather on mobile